sensor_id;sensor_type;location;lat;lon;timestamp;temperature;humidity
6948;DHT22;3513;47.664;9.162;2022-08-03T00:00:11;20.70;99.70
6948;DHT22;3513;47.664;9.162;2022-08-03T00:03:25;20.70;99.90
6948;DHT22;3513;47.664;9.162;2022-08-03T00:06:54;20.80;99.90
6948;DHT22;3513;47.664;9.162;2022-08-03T00:09:54;20.70;99.90
6948;DHT22;3513;47.664;9.162;2022-08-03T00:12:50;20.80;99.90
6948;DHT22;3513;47.664;9.162;2022-08-03T00:16:00;21.00;99.90
6948;DHT22;3513;47.664;9.162;2022-08-03T00:18:43;20.70;99.90
6948;DHT22;3513;47.664;9.162;2022-08-03T00:26:20;20.70;99.90
6948;DHT22;3513;47.664;9.162;2022-08-03T00:28:45;20.70;99.90
6948;DHT22;3513;47.664;9.162;2022-08-03T00:31:11;20.60;99.90
6948;DHT22;3513;47.664;9.162;2022-08-03T00:33:37;20.60;99.90
6948;DHT22;3513;47.664;9.162;2022-08-03T00:36:03;20.60;99.90
6948;DHT22;3513;47.664;9.162;2022-08-03T00:38:29;20.60;99.90
6948;DHT22;3513;47.664;9.162;2022-08-03T00:40:54;20.50;99.90
6948;DHT22;3513;47.664;9.162;2022-08-03T00:43:24;20.50;99.90
6948;DHT22;3513;47.664;9.162;2022-08-03T00:45:51;20.50;99.90
6948;DHT22;3513;47.664;9.162;2022-08-03T00:48:16;20.40;99.90
6948;DHT22;3513;47.664;9.162;2022-08-03T00:50:42;20.30;99.90
6948;DHT22;3513;47.664;9.162;2022-08-03T00:53:10;20.20;99.90
6948;DHT22;3513;47.664;9.162;2022-08-03T00:55:42;20.10;99.90
6948;DHT22;3513;47.664;9.162;2022-08-03T00:58:09;20.10;99.90
6948;DHT22;3513;47.664;9.162;2022-08-03T01:00:37;20.10;99.90
6948;DHT22;3513;47.664;9.162;2022-08-03T01:03:07;20.00;99.90
6948;DHT22;3513;47.664;9.162;2022-08-03T01:13:52;20.00;99.90
6948;DHT22;3513;47.664;9.162;2022-08-03T01:16:29;20.00;99.90
6948;DHT22;3513;47.664;9.162;2022-08-03T01:19:11;20.00;99.90
6948;DHT22;3513;47.664;9.162;2022-08-03T01:27:16;20.00;99.90
6948;DHT22;3513;47.664;9.162;2022-08-03T01:29:51;20.00;99.90
6948;DHT22;3513;47.664;9.162;2022-08-03T01:32:33;20.00;99.90
6948;DHT22;3513;47.664;9.162;2022-08-03T01:35:34;20.00;99.90
6948;DHT22;3513;47.664;9.162;2022-08-03T01:38:01;20.00;99.90
6948;DHT22;3513;47.664;9.162;2022-08-03T01:40:28;20.00;99.90
6948;DHT22;3513;47.664;9.162;2022-08-03T01:42:58;20.00;99.90
6948;DHT22;3513;47.664;9.162;2022-08-03T01:45:26;20.10;99.90
6948;DHT22;3513;47.664;9.162;2022-08-03T01:47:53;20.00;99.90
6948;DHT22;3513;47.664;9.162;2022-08-03T01:50:26;20.00;99.90
6948;DHT22;3513;47.664;9.162;2022-08-03T01:52:53;19.90;99.90
6948;DHT22;3513;47.664;9.162;2022-08-03T01:55:22;19.90;99.90
6948;DHT22;3513;47.664;9.162;2022-08-03T01:57:49;19.80;99.90
6948;DHT22;3513;47.664;9.162;2022-08-03T02:00:16;19.80;99.90
6948;DHT22;3513;47.664;9.162;2022-08-03T02:02:45;19.70;99.90
6948;DHT22;3513;47.664;9.162;2022-08-03T02:05:11;19.60;99.90
6948;DHT22;3513;47.664;9.162;2022-08-03T02:07:40;19.60;99.90
6948;DHT22;3513;47.664;9.162;2022-08-03T02:10:06;19.60;99.90
6948;DHT22;3513;47.664;9.162;2022-08-03T02:12:33;19.60;99.90
6948;DHT22;3513;47.664;9.162;2022-08-03T02:15:01;19.60;99.90
6948;DHT22;3513;47.664;9.162;2022-08-03T02:17:27;19.60;99.90
6948;DHT22;3513;47.664;9.162;2022-08-03T02:19:57;19.60;99.90
6948;DHT22;3513;47.664;9.162;2022-08-03T02:22:24;19.60;99.90
6948;DHT22;3513;47.664;9.162;2022-08-03T02:24:50;19.60;99.90
6948;DHT22;3513;47.664;9.162;2022-08-03T02:27:25;19.60;99.90
6948;DHT22;3513;47.664;9.162;2022-08-03T02:30:10;19.60;99.90
6948;DHT22;3513;47.664;9.162;2022-08-03T02:32:41;19.60;99.90
6948;DHT22;3513;47.664;9.162;2022-08-03T02:35:10;19.50;99.90
6948;DHT22;3513;47.664;9.162;2022-08-03T02:37:43;19.50;99.90
6948;DHT22;3513;47.664;9.162;2022-08-03T02:40:12;19.40;99.90
6948;DHT22;3513;47.664;9.162;2022-08-03T02:42:41;19.40;99.90
6948;DHT22;3513;47.664;9.162;2022-08-03T02:45:10;19.40;99.90
6948;DHT22;3513;47.664;9.162;2022-08-03T02:47:40;19.40;99.90
6948;DHT22;3513;47.664;9.162;2022-08-03T02:50:10;19.40;99.90
6948;DHT22;3513;47.664;9.162;2022-08-03T02:52:37;19.40;99.90
6948;DHT22;3513;47.664;9.162;2022-08-03T02:55:05;19.50;99.90
6948;DHT22;3513;47.664;9.162;2022-08-03T02:57:34;19.50;99.90
6948;DHT22;3513;47.664;9.162;2022-08-03T03:00:00;19.40;99.90
6948;DHT22;3513;47.664;9.162;2022-08-03T03:02:27;19.40;99.90
6948;DHT22;3513;47.664;9.162;2022-08-03T03:04:55;19.40;99.90
6948;DHT22;3513;47.664;9.162;2022-08-03T03:07:21;19.40;99.90
6948;DHT22;3513;47.664;9.162;2022-08-03T03:09:47;19.30;99.90
6948;DHT22;3513;47.664;9.162;2022-08-03T03:12:14;19.30;99.90
6948;DHT22;3513;47.664;9.162;2022-08-03T03:14:42;19.30;99.90
6948;DHT22;3513;47.664;9.162;2022-08-03T03:17:09;19.30;99.90
6948;DHT22;3513;47.664;9.162;2022-08-03T03:19:38;19.30;99.90
6948;DHT22;3513;47.664;9.162;2022-08-03T03:22:06;19.30;99.90
6948;DHT22;3513;47.664;9.162;2022-08-03T03:24:34;19.30;99.90
6948;DHT22;3513;47.664;9.162;2022-08-03T03:27:00;19.20;99.90
6948;DHT22;3513;47.664;9.162;2022-08-03T03:29:27;19.20;99.90
6948;DHT22;3513;47.664;9.162;2022-08-03T03:31:52;19.20;99.90
6948;DHT22;3513;47.664;9.162;2022-08-03T03:34:18;19.10;99.90
6948;DHT22;3513;47.664;9.162;2022-08-03T03:36:44;19.10;99.90
6948;DHT22;3513;47.664;9.162;2022-08-03T03:39:10;19.00;99.90
6948;DHT22;3513;47.664;9.162;2022-08-03T03:41:36;19.10;99.90
6948;DHT22;3513;47.664;9.162;2022-08-03T03:44:02;19.10;99.90
6948;DHT22;3513;47.664;9.162;2022-08-03T03:46:28;19.10;99.90
6948;DHT22;3513;47.664;9.162;2022-08-03T03:48:54;19.00;99.90
6948;DHT22;3513;47.664;9.162;2022-08-03T03:51:19;19.00;99.90
6948;DHT22;3513;47.664;9.162;2022-08-03T03:53:59;19.00;99.90
6948;DHT22;3513;47.664;9.162;2022-08-03T03:56:25;19.00;99.90
6948;DHT22;3513;47.664;9.162;2022-08-03T03:58:51;19.00;99.90
6948;DHT22;3513;47.664;9.162;2022-08-03T04:01:18;19.00;99.90
6948;DHT22;3513;47.664;9.162;2022-08-03T04:03:43;19.00;99.90
6948;DHT22;3513;47.664;9.162;2022-08-03T04:06:09;19.00;99.90
6948;DHT22;3513;47.664;9.162;2022-08-03T04:08:54;19.00;99.90
6948;DHT22;3513;47.664;9.162;2022-08-03T04:11:42;19.00;99.90
6948;DHT22;3513;47.664;9.162;2022-08-03T04:14:14;18.90;99.90
6948;DHT22;3513;47.664;9.162;2022-08-03T04:16:45;19.00;99.90
6948;DHT22;3513;47.664;9.162;2022-08-03T04:19:20;19.00;99.90
6948;DHT22;3513;47.664;9.162;2022-08-03T04:21:49;18.90;99.90
6948;DHT22;3513;47.664;9.162;2022-08-03T04:24:17;19.00;99.90
6948;DHT22;3513;47.664;9.162;2022-08-03T04:26:45;19.00;99.90
6948;DHT22;3513;47.664;9.162;2022-08-03T04:29:12;19.00;99.90
6948;DHT22;3513;47.664;9.162;2022-08-03T04:31:39;19.00;99.90
6948;DHT22;3513;47.664;9.162;2022-08-03T04:34:06;19.00;99.90
6948;DHT22;3513;47.664;9.162;2022-08-03T04:36:36;19.00;99.90
6948;DHT22;3513;47.664;9.162;2022-08-03T04:39:07;18.90;99.90
6948;DHT22;3513;47.664;9.162;2022-08-03T04:41:34;18.90;99.90
6948;DHT22;3513;47.664;9.162;2022-08-03T04:44:01;18.80;99.90
6948;DHT22;3513;47.664;9.162;2022-08-03T04:46:33;18.80;99.90
6948;DHT22;3513;47.664;9.162;2022-08-03T04:49:00;18.80;99.90
6948;DHT22;3513;47.664;9.162;2022-08-03T04:51:26;18.80;99.90
6948;DHT22;3513;47.664;9.162;2022-08-03T04:53:52;18.80;99.90
6948;DHT22;3513;47.664;9.162;2022-08-03T04:56:18;18.80;99.90
6948;DHT22;3513;47.664;9.162;2022-08-03T04:58:50;18.80;99.90
6948;DHT22;3513;47.664;9.162;2022-08-03T05:01:16;18.80;99.90
6948;DHT22;3513;47.664;9.162;2022-08-03T05:03:42;18.90;99.90
6948;DHT22;3513;47.664;9.162;2022-08-03T05:06:08;18.90;99.90
6948;DHT22;3513;47.664;9.162;2022-08-03T05:08:34;19.10;99.90
6948;DHT22;3513;47.664;9.162;2022-08-03T05:11:00;19.10;99.90
6948;DHT22;3513;47.664;9.162;2022-08-03T05:13:27;19.20;99.90
6948;DHT22;3513;47.664;9.162;2022-08-03T05:28:59;19.60;99.90
6948;DHT22;3513;47.664;9.162;2022-08-03T05:34:54;19.70;99.90
6948;DHT22;3513;47.664;9.162;2022-08-03T05:37:16;19.80;99.90
6948;DHT22;3513;47.664;9.162;2022-08-03T05:39:46;19.80;99.90
6948;DHT22;3513;47.664;9.162;2022-08-03T05:42:14;20.00;99.90
6948;DHT22;3513;47.664;9.162;2022-08-03T05:44:47;20.20;99.90
6948;DHT22;3513;47.664;9.162;2022-08-03T05:47:13;20.50;99.90
6948;DHT22;3513;47.664;9.162;2022-08-03T05:49:41;20.10;99.90
6948;DHT22;3513;47.664;9.162;2022-08-03T05:52:24;20.50;99.90
6948;DHT22;3513;47.664;9.162;2022-08-03T06:09:10;20.30;99.90
6948;DHT22;3513;47.664;9.162;2022-08-03T06:11:39;20.30;99.90
6948;DHT22;3513;47.664;9.162;2022-08-03T06:14:06;20.40;99.90
6948;DHT22;3513;47.664;9.162;2022-08-03T06:16:31;20.50;99.90
6948;DHT22;3513;47.664;9.162;2022-08-03T06:18:58;20.60;99.90
6948;DHT22;3513;47.664;9.162;2022-08-03T06:21:24;20.60;99.90
6948;DHT22;3513;47.664;9.162;2022-08-03T06:23:49;20.60;99.90
6948;DHT22;3513;47.664;9.162;2022-08-03T06:26:15;19.70;99.90
6948;DHT22;3513;47.664;9.162;2022-08-03T06:28:44;20.80;99.90
6948;DHT22;3513;47.664;9.162;2022-08-03T06:31:09;20.80;99.90
6948;DHT22;3513;47.664;9.162;2022-08-03T06:33:35;20.90;99.90
6948;DHT22;3513;47.664;9.162;2022-08-03T06:36:02;20.90;99.90
6948;DHT22;3513;47.664;9.162;2022-08-03T06:38:27;21.00;99.90
6948;DHT22;3513;47.664;9.162;2022-08-03T06:40:53;21.20;99.90
6948;DHT22;3513;47.664;9.162;2022-08-03T06:43:19;21.20;99.90
6948;DHT22;3513;47.664;9.162;2022-08-03T06:45:45;21.30;99.90
6948;DHT22;3513;47.664;9.162;2022-08-03T06:48:11;21.30;99.90
6948;DHT22;3513;47.664;9.162;2022-08-03T06:50:40;21.40;99.90
6948;DHT22;3513;47.664;9.162;2022-08-03T06:53:06;21.50;99.90
6948;DHT22;3513;47.664;9.162;2022-08-03T06:55:33;21.60;99.90
6948;DHT22;3513;47.664;9.162;2022-08-03T06:57:59;21.70;99.90
6948;DHT22;3513;47.664;9.162;2022-08-03T07:00:25;21.80;99.90
6948;DHT22;3513;47.664;9.162;2022-08-03T07:02:59;21.80;99.90
6948;DHT22;3513;47.664;9.162;2022-08-03T07:05:28;21.90;99.90
6948;DHT22;3513;47.664;9.162;2022-08-03T07:07:58;21.90;99.90
6948;DHT22;3513;47.664;9.162;2022-08-03T07:10:27;22.10;99.90
6948;DHT22;3513;47.664;9.162;2022-08-03T07:12:53;20.90;99.90
6948;DHT22;3513;47.664;9.162;2022-08-03T07:15:19;22.30;99.90
6948;DHT22;3513;47.664;9.162;2022-08-03T07:17:45;22.40;99.90
6948;DHT22;3513;47.664;9.162;2022-08-03T07:20:14;22.60;99.90
6948;DHT22;3513;47.664;9.162;2022-08-03T07:22:44;22.70;99.90
6948;DHT22;3513;47.664;9.162;2022-08-03T07:25:10;22.80;99.90
6948;DHT22;3513;47.664;9.162;2022-08-03T07:28:00;22.90;99.90
6948;DHT22;3513;47.664;9.162;2022-08-03T07:30:34;22.40;99.90
6948;DHT22;3513;47.664;9.162;2022-08-03T07:33:00;24.60;99.90
6948;DHT22;3513;47.664;9.162;2022-08-03T07:35:26;23.20;99.90
6948;DHT22;3513;47.664;9.162;2022-08-03T07:37:57;23.20;99.90
6948;DHT22;3513;47.664;9.162;2022-08-03T07:40:23;23.20;99.90
6948;DHT22;3513;47.664;9.162;2022-08-03T07:42:49;23.30;99.90
6948;DHT22;3513;47.664;9.162;2022-08-03T07:45:14;24.20;99.90
6948;DHT22;3513;47.664;9.162;2022-08-03T07:47:40;23.50;99.80
6948;DHT22;3513;47.664;9.162;2022-08-03T07:50:12;23.60;99.40
6948;DHT22;3513;47.664;9.162;2022-08-03T07:52:38;23.70;98.50
6948;DHT22;3513;47.664;9.162;2022-08-03T07:55:13;23.80;98.20
6948;DHT22;3513;47.664;9.162;2022-08-03T07:57:38;23.90;97.90
6948;DHT22;3513;47.664;9.162;2022-08-03T08:00:06;24.00;97.40
6948;DHT22;3513;47.664;9.162;2022-08-03T08:02:36;24.10;97.00
6948;DHT22;3513;47.664;9.162;2022-08-03T08:05:01;24.10;96.70
6948;DHT22;3513;47.664;9.162;2022-08-03T08:07:27;24.20;96.50
6948;DHT22;3513;47.664;9.162;2022-08-03T08:09:53;24.30;96.30
6948;DHT22;3513;47.664;9.162;2022-08-03T08:12:19;24.40;96.00
6948;DHT22;3513;47.664;9.162;2022-08-03T08:14:45;24.40;95.90
6948;DHT22;3513;47.664;9.162;2022-08-03T08:17:11;24.60;95.70
6948;DHT22;3513;47.664;9.162;2022-08-03T08:19:37;24.70;95.50
6948;DHT22;3513;47.664;9.162;2022-08-03T08:22:03;24.70;95.10
6948;DHT22;3513;47.664;9.162;2022-08-03T08:24:29;24.80;94.80
6948;DHT22;3513;47.664;9.162;2022-08-03T08:26:55;24.90;94.70
6948;DHT22;3513;47.664;9.162;2022-08-03T08:29:21;24.90;94.30
6948;DHT22;3513;47.664;9.162;2022-08-03T08:31:48;25.00;93.80
6948;DHT22;3513;47.664;9.162;2022-08-03T08:34:15;26.40;94.60
6948;DHT22;3513;47.664;9.162;2022-08-03T08:36:40;25.00;94.10
6948;DHT22;3513;47.664;9.162;2022-08-03T08:39:32;25.00;93.70
6948;DHT22;3513;47.664;9.162;2022-08-03T08:42:01;25.10;93.70
6948;DHT22;3513;47.664;9.162;2022-08-03T08:44:30;25.10;93.10
6948;DHT22;3513;47.664;9.162;2022-08-03T08:46:56;23.40;92.40
6948;DHT22;3513;47.664;9.162;2022-08-03T08:49:25;25.30;93.10
6948;DHT22;3513;47.664;9.162;2022-08-03T08:51:53;25.40;93.00
6948;DHT22;3513;47.664;9.162;2022-08-03T08:54:21;25.40;92.80
6948;DHT22;3513;47.664;9.162;2022-08-03T08:56:52;25.50;92.40
6948;DHT22;3513;47.664;9.162;2022-08-03T08:59:19;25.60;92.40
6948;DHT22;3513;47.664;9.162;2022-08-03T09:01:45;25.70;92.10
6948;DHT22;3513;47.664;9.162;2022-08-03T09:04:11;25.80;92.20
6948;DHT22;3513;47.664;9.162;2022-08-03T09:06:36;25.90;92.00
6948;DHT22;3513;47.664;9.162;2022-08-03T09:09:02;26.00;91.60
6948;DHT22;3513;47.664;9.162;2022-08-03T09:11:30;26.10;91.40
6948;DHT22;3513;47.664;9.162;2022-08-03T09:13:56;26.20;91.10
6948;DHT22;3513;47.664;9.162;2022-08-03T09:16:23;26.20;90.80
6948;DHT22;3513;47.664;9.162;2022-08-03T09:18:52;26.20;90.70
6948;DHT22;3513;47.664;9.162;2022-08-03T09:21:20;26.20;90.50
6948;DHT22;3513;47.664;9.162;2022-08-03T09:23:48;26.20;90.70
6948;DHT22;3513;47.664;9.162;2022-08-03T09:26:24;26.30;90.80
6948;DHT22;3513;47.664;9.162;2022-08-03T09:31:59;26.50;90.30
6948;DHT22;3513;47.664;9.162;2022-08-03T09:34:25;26.50;90.00
6948;DHT22;3513;47.664;9.162;2022-08-03T09:36:53;26.60;90.00
6948;DHT22;3513;47.664;9.162;2022-08-03T09:39:26;26.60;89.70
6948;DHT22;3513;47.664;9.162;2022-08-03T09:42:10;26.70;89.40
6948;DHT22;3513;47.664;9.162;2022-08-03T09:44:42;26.80;89.40
6948;DHT22;3513;47.664;9.162;2022-08-03T09:47:09;26.80;89.80
6948;DHT22;3513;47.664;9.162;2022-08-03T09:49:36;26.90;89.30
6948;DHT22;3513;47.664;9.162;2022-08-03T09:52:14;27.10;88.50
6948;DHT22;3513;47.664;9.162;2022-08-03T09:54:43;27.10;87.50
6948;DHT22;3513;47.664;9.162;2022-08-03T09:57:26;27.20;86.50
6948;DHT22;3513;47.664;9.162;2022-08-03T09:59:53;27.40;86.10
6948;DHT22;3513;47.664;9.162;2022-08-03T10:02:26;27.40;85.80
6948;DHT22;3513;47.664;9.162;2022-08-03T10:04:52;27.50;85.50
6948;DHT22;3513;47.664;9.162;2022-08-03T10:07:23;27.60;85.50
6948;DHT22;3513;47.664;9.162;2022-08-03T10:10:00;27.70;84.90
6948;DHT22;3513;47.664;9.162;2022-08-03T10:12:27;27.80;84.00
6948;DHT22;3513;47.664;9.162;2022-08-03T10:14:53;27.90;83.90
6948;DHT22;3513;47.664;9.162;2022-08-03T10:17:20;28.00;82.70
6948;DHT22;3513;47.664;9.162;2022-08-03T10:19:47;28.10;82.90
6948;DHT22;3513;47.664;9.162;2022-08-03T10:22:26;28.20;80.30
6948;DHT22;3513;47.664;9.162;2022-08-03T10:24:59;26.60;79.60
6948;DHT22;3513;47.664;9.162;2022-08-03T10:27:42;29.20;80.70
6948;DHT22;3513;47.664;9.162;2022-08-03T10:30:11;28.40;79.50
6948;DHT22;3513;47.664;9.162;2022-08-03T10:33:00;27.60;78.10
6948;DHT22;3513;47.664;9.162;2022-08-03T10:35:29;28.50;77.40
6948;DHT22;3513;47.664;9.162;2022-08-03T10:38:00;28.50;76.10
6948;DHT22;3513;47.664;9.162;2022-08-03T10:40:30;28.70;75.70
6948;DHT22;3513;47.664;9.162;2022-08-03T10:42:59;28.70;75.60
6948;DHT22;3513;47.664;9.162;2022-08-03T10:45:28;28.70;76.00
6948;DHT22;3513;47.664;9.162;2022-08-03T10:47:56;28.80;76.00
6948;DHT22;3513;47.664;9.162;2022-08-03T10:50:24;28.90;74.80
6948;DHT22;3513;47.664;9.162;2022-08-03T10:52:57;29.00;73.70
6948;DHT22;3513;47.664;9.162;2022-08-03T10:55:43;29.10;73.30
6948;DHT22;3513;47.664;9.162;2022-08-03T11:01:06;29.30;69.20
6948;DHT22;3513;47.664;9.162;2022-08-03T11:03:32;29.40;67.30
6948;DHT22;3513;47.664;9.162;2022-08-03T11:06:16;29.50;66.20
6948;DHT22;3513;47.664;9.162;2022-08-03T11:08:46;29.60;65.20
6948;DHT22;3513;47.664;9.162;2022-08-03T11:14:00;29.70;64.50
6948;DHT22;3513;47.664;9.162;2022-08-03T11:16:28;29.80;64.10
6948;DHT22;3513;47.664;9.162;2022-08-03T11:19:05;29.80;62.70
6948;DHT22;3513;47.664;9.162;2022-08-03T11:27:17;29.90;60.30
6948;DHT22;3513;47.664;9.162;2022-08-03T11:35:09;30.20;58.40
6948;DHT22;3513;47.664;9.162;2022-08-03T11:37:36;30.30;57.70
6948;DHT22;3513;47.664;9.162;2022-08-03T11:43:08;30.50;56.50
6948;DHT22;3513;47.664;9.162;2022-08-03T11:45:36;30.60;56.70
6948;DHT22;3513;47.664;9.162;2022-08-03T11:48:15;30.70;56.10
6948;DHT22;3513;47.664;9.162;2022-08-03T11:50:42;30.70;55.80
6948;DHT22;3513;47.664;9.162;2022-08-03T11:53:14;30.80;56.20
6948;DHT22;3513;47.664;9.162;2022-08-03T11:55:42;30.80;55.80
6948;DHT22;3513;47.664;9.162;2022-08-03T11:58:15;30.90;54.60
6948;DHT22;3513;47.664;9.162;2022-08-03T12:00:41;31.00;54.10
6948;DHT22;3513;47.664;9.162;2022-08-03T12:03:13;31.10;53.40
6948;DHT22;3513;47.664;9.162;2022-08-03T12:08:44;31.30;52.20
6948;DHT22;3513;47.664;9.162;2022-08-03T12:11:13;31.30;51.70
6948;DHT22;3513;47.664;9.162;2022-08-03T12:16:05;31.50;50.50
6948;DHT22;3513;47.664;9.162;2022-08-03T12:18:31;31.60;49.10
6948;DHT22;3513;47.664;9.162;2022-08-03T12:21:06;31.70;48.30
6948;DHT22;3513;47.664;9.162;2022-08-03T12:23:34;31.80;47.00
6948;DHT22;3513;47.664;9.162;2022-08-03T12:26:07;31.90;46.80
6948;DHT22;3513;47.664;9.162;2022-08-03T12:28:36;32.00;44.70
6948;DHT22;3513;47.664;9.162;2022-08-03T12:31:06;32.70;44.80
6948;DHT22;3513;47.664;9.162;2022-08-03T12:34:00;32.20;44.80
6948;DHT22;3513;47.664;9.162;2022-08-03T12:36:28;32.40;44.30
6948;DHT22;3513;47.664;9.162;2022-08-03T12:39:03;32.50;43.70
6948;DHT22;3513;47.664;9.162;2022-08-03T12:41:37;32.60;42.60
6948;DHT22;3513;47.664;9.162;2022-08-03T12:44:04;32.70;40.90
6948;DHT22;3513;47.664;9.162;2022-08-03T12:46:40;32.80;40.50
6948;DHT22;3513;47.664;9.162;2022-08-03T12:49:11;33.00;39.10
6948;DHT22;3513;47.664;9.162;2022-08-03T12:54:09;33.50;36.90
6948;DHT22;3513;47.664;9.162;2022-08-03T12:57:25;33.70;32.20
6948;DHT22;3513;47.664;9.162;2022-08-03T13:00:10;33.70;30.00
6948;DHT22;3513;47.664;9.162;2022-08-03T13:02:57;33.80;32.70
6948;DHT22;3513;47.664;9.162;2022-08-03T13:05:45;34.10;32.60
6948;DHT22;3513;47.664;9.162;2022-08-03T13:08:23;34.20;34.40
6948;DHT22;3513;47.664;9.162;2022-08-03T13:10:51;35.00;35.30
6948;DHT22;3513;47.664;9.162;2022-08-03T13:13:17;34.40;34.30
6948;DHT22;3513;47.664;9.162;2022-08-03T13:15:45;35.00;33.80
6948;DHT22;3513;47.664;9.162;2022-08-03T13:18:10;35.30;33.80
6948;DHT22;3513;47.664;9.162;2022-08-03T13:20:36;35.40;34.30
6948;DHT22;3513;47.664;9.162;2022-08-03T13:23:02;35.80;34.40
6948;DHT22;3513;47.664;9.162;2022-08-03T13:25:33;36.00;35.10
6948;DHT22;3513;47.664;9.162;2022-08-03T13:27:59;36.20;33.70
6948;DHT22;3513;47.664;9.162;2022-08-03T13:30:24;36.30;34.30
6948;DHT22;3513;47.664;9.162;2022-08-03T13:32:50;36.50;34.50
6948;DHT22;3513;47.664;9.162;2022-08-03T13:35:16;36.70;35.80
6948;DHT22;3513;47.664;9.162;2022-08-03T13:37:42;37.00;34.00
6948;DHT22;3513;47.664;9.162;2022-08-03T13:40:08;37.20;33.10
6948;DHT22;3513;47.664;9.162;2022-08-03T13:42:34;37.30;32.00
6948;DHT22;3513;47.664;9.162;2022-08-03T13:45:03;37.30;31.00
6948;DHT22;3513;47.664;9.162;2022-08-03T13:47:29;37.20;30.40
6948;DHT22;3513;47.664;9.162;2022-08-03T13:49:55;36.50;29.80
6948;DHT22;3513;47.664;9.162;2022-08-03T13:52:21;36.30;31.40
6948;DHT22;3513;47.664;9.162;2022-08-03T13:54:47;36.30;29.60
6948;DHT22;3513;47.664;9.162;2022-08-03T13:57:12;36.40;29.20
6948;DHT22;3513;47.664;9.162;2022-08-03T13:59:38;36.40;28.10
6948;DHT22;3513;47.664;9.162;2022-08-03T14:02:04;36.50;28.90
6948;DHT22;3513;47.664;9.162;2022-08-03T14:04:30;36.50;29.80
6948;DHT22;3513;47.664;9.162;2022-08-03T14:06:58;36.60;30.50
6948;DHT22;3513;47.664;9.162;2022-08-03T14:09:23;36.70;29.60
6948;DHT22;3513;47.664;9.162;2022-08-03T14:11:49;36.80;30.50
6948;DHT22;3513;47.664;9.162;2022-08-03T14:14:17;37.00;29.90
6948;DHT22;3513;47.664;9.162;2022-08-03T14:16:43;37.40;30.10
6948;DHT22;3513;47.664;9.162;2022-08-03T14:19:09;37.90;30.20
6948;DHT22;3513;47.664;9.162;2022-08-03T14:21:34;38.30;29.60
6948;DHT22;3513;47.664;9.162;2022-08-03T14:24:00;38.50;28.50
6948;DHT22;3513;47.664;9.162;2022-08-03T14:26:27;38.80;29.10
6948;DHT22;3513;47.664;9.162;2022-08-03T14:28:52;39.00;28.60
6948;DHT22;3513;47.664;9.162;2022-08-03T14:31:18;39.10;28.20
6948;DHT22;3513;47.664;9.162;2022-08-03T14:33:44;39.10;28.10
6948;DHT22;3513;47.664;9.162;2022-08-03T14:36:09;39.00;28.00
6948;DHT22;3513;47.664;9.162;2022-08-03T14:38:35;38.80;28.30
6948;DHT22;3513;47.664;9.162;2022-08-03T14:41:01;38.50;29.00
6948;DHT22;3513;47.664;9.162;2022-08-03T14:43:26;38.50;28.70
6948;DHT22;3513;47.664;9.162;2022-08-03T14:45:52;38.60;29.50
6948;DHT22;3513;47.664;9.162;2022-08-03T14:48:22;39.00;28.70
6948;DHT22;3513;47.664;9.162;2022-08-03T14:50:49;39.10;28.90
6948;DHT22;3513;47.664;9.162;2022-08-03T14:53:17;39.10;28.00
6948;DHT22;3513;47.664;9.162;2022-08-03T14:55:43;39.20;28.50
6948;DHT22;3513;47.664;9.162;2022-08-03T14:58:10;39.30;29.90
6948;DHT22;3513;47.664;9.162;2022-08-03T15:00:36;39.50;27.60
6948;DHT22;3513;47.664;9.162;2022-08-03T15:03:02;39.80;28.10
6948;DHT22;3513;47.664;9.162;2022-08-03T15:05:32;40.00;27.70
6948;DHT22;3513;47.664;9.162;2022-08-03T15:07:57;40.20;27.00
6948;DHT22;3513;47.664;9.162;2022-08-03T15:10:23;40.20;27.70
6948;DHT22;3513;47.664;9.162;2022-08-03T15:12:51;40.10;27.10
6948;DHT22;3513;47.664;9.162;2022-08-03T15:15:19;40.10;28.00
6948;DHT22;3513;47.664;9.162;2022-08-03T15:17:45;40.30;27.60
6948;DHT22;3513;47.664;9.162;2022-08-03T15:20:17;40.50;27.70
6948;DHT22;3513;47.664;9.162;2022-08-03T15:22:45;40.80;27.30
6948;DHT22;3513;47.664;9.162;2022-08-03T15:25:11;40.90;26.50
6948;DHT22;3513;47.664;9.162;2022-08-03T15:27:40;41.20;25.60
6948;DHT22;3513;47.664;9.162;2022-08-03T15:30:09;41.30;26.00
6948;DHT22;3513;47.664;9.162;2022-08-03T15:32:38;41.40;25.90
6948;DHT22;3513;47.664;9.162;2022-08-03T15:35:07;41.60;26.20
6948;DHT22;3513;47.664;9.162;2022-08-03T15:37:35;41.90;25.30
6948;DHT22;3513;47.664;9.162;2022-08-03T15:40:13;42.10;25.00
6948;DHT22;3513;47.664;9.162;2022-08-03T15:42:39;41.60;25.40
6948;DHT22;3513;47.664;9.162;2022-08-03T15:45:14;42.90;24.20
6948;DHT22;3513;47.664;9.162;2022-08-03T15:47:49;43.40;24.20
6948;DHT22;3513;47.664;9.162;2022-08-03T15:52:57;44.00;23.60
6948;DHT22;3513;47.664;9.162;2022-08-03T15:55:32;44.10;23.60
6948;DHT22;3513;47.664;9.162;2022-08-03T15:58:00;44.30;23.20
6948;DHT22;3513;47.664;9.162;2022-08-03T16:00:31;44.40;23.30
6948;DHT22;3513;47.664;9.162;2022-08-03T16:03:04;43.80;23.10
6948;DHT22;3513;47.664;9.162;2022-08-03T16:08:14;44.00;22.90
6948;DHT22;3513;47.664;9.162;2022-08-03T16:11:05;44.20;22.90
6948;DHT22;3513;47.664;9.162;2022-08-03T16:13:37;44.40;23.30
6948;DHT22;3513;47.664;9.162;2022-08-03T16:16:03;44.60;22.70
6948;DHT22;3513;47.664;9.162;2022-08-03T16:18:32;44.70;22.70
6948;DHT22;3513;47.664;9.162;2022-08-03T16:21:00;44.80;22.60
6948;DHT22;3513;47.664;9.162;2022-08-03T16:23:29;44.80;22.60
6948;DHT22;3513;47.664;9.162;2022-08-03T16:26:11;45.10;22.60
6948;DHT22;3513;47.664;9.162;2022-08-03T16:28:37;45.40;22.30
6948;DHT22;3513;47.664;9.162;2022-08-03T16:31:07;44.80;21.70
6948;DHT22;3513;47.664;9.162;2022-08-03T16:33:39;45.60;21.80
6948;DHT22;3513;47.664;9.162;2022-08-03T16:36:11;45.70;22.10
6948;DHT22;3513;47.664;9.162;2022-08-03T16:38:44;45.90;21.80
6948;DHT22;3513;47.664;9.162;2022-08-03T16:41:10;46.10;21.80
6948;DHT22;3513;47.664;9.162;2022-08-03T16:43:36;46.10;21.40
6948;DHT22;3513;47.664;9.162;2022-08-03T16:46:07;46.40;22.10
6948;DHT22;3513;47.664;9.162;2022-08-03T16:48:35;46.70;21.50
6948;DHT22;3513;47.664;9.162;2022-08-03T16:51:01;47.00;21.80
6948;DHT22;3513;47.664;9.162;2022-08-03T16:53:30;47.30;21.20
6948;DHT22;3513;47.664;9.162;2022-08-03T16:55:58;47.50;21.10
6948;DHT22;3513;47.664;9.162;2022-08-03T16:58:29;47.60;21.50
6948;DHT22;3513;47.664;9.162;2022-08-03T17:00:55;46.70;21.00
6948;DHT22;3513;47.664;9.162;2022-08-03T17:03:21;47.30;21.60
6948;DHT22;3513;47.664;9.162;2022-08-03T17:05:48;47.20;21.70
6948;DHT22;3513;47.664;9.162;2022-08-03T17:08:14;47.10;21.60
6948;DHT22;3513;47.664;9.162;2022-08-03T17:10:43;47.10;21.70
6948;DHT22;3513;47.664;9.162;2022-08-03T17:13:09;46.80;21.90
6948;DHT22;3513;47.664;9.162;2022-08-03T17:15:35;47.00;22.10
6948;DHT22;3513;47.664;9.162;2022-08-03T17:18:04;46.60;22.30
6948;DHT22;3513;47.664;9.162;2022-08-03T17:20:32;46.40;22.60
6948;DHT22;3513;47.664;9.162;2022-08-03T17:23:43;46.30;22.40
6948;DHT22;3513;47.664;9.162;2022-08-03T17:29:01;46.00;23.10
6948;DHT22;3513;47.664;9.162;2022-08-03T17:31:37;45.90;23.50
6948;DHT22;3513;47.664;9.162;2022-08-03T17:36:49;45.60;23.00
6948;DHT22;3513;47.664;9.162;2022-08-03T17:39:24;45.60;23.10
6948;DHT22;3513;47.664;9.162;2022-08-03T17:45:49;45.60;23.00
6948;DHT22;3513;47.664;9.162;2022-08-03T17:48:17;45.60;22.70
6948;DHT22;3513;47.664;9.162;2022-08-03T17:51:02;45.50;22.80
6948;DHT22;3513;47.664;9.162;2022-08-03T18:09:15;44.10;25.60